Time;durP1;ratioP1;P1;durP2;ratioP2;P2;SDS_P1;SDS_P2;PMS_P1;PMS_P2;Temp;Humidity;BMP_temperature;BMP_pressure;BME280_temperature;BME280_humidity;BME280_pressure;Samples;Min_cycle;Max_cycle;Signal;HPM_P1;HPM_P2
2022/09/22 00:01:08;;;;;;;12.98;10.27;;;;;;;4.21;100.00;102454.31;2096748;28;40104;-73
2022/09/22 00:02:09;;;;;;;15.15;10.40;;;;;;;4.23;100.00;102449.06;2096947;28;36990;-73
2022/09/22 00:03:11;;;;;;;15.57;11.07;;;;;;;4.20;100.00;102449.91;2096957;28;23958;-73
2022/09/22 00:04:16;;;;;;;16.63;10.95;;;;;;;4.20;100.00;102453.44;2097607;28;20897;-74
2022/09/22 00:05:18;;;;;;;16.73;10.07;;;;;;;4.20;100.00;102448.13;2096996;28;25319;-74
2022/09/22 00:06:47;;;;;;;12.88;9.43;;;;;;;4.21;100.00;102452.56;2097269;28;36487;-74
2022/09/22 00:07:48;;;;;;;13.57;10.35;;;;;;;4.20;100.00;102457.84;2096263;28;35924;-74
2022/09/22 00:08:55;;;;;;;15.80;10.55;;;;;;;4.20;100.00;102458.75;2096281;28;35394;-74
2022/09/22 00:09:57;;;;;;;14.65;10.45;;;;;;;4.19;100.00;102456.94;2096861;28;39321;-74
2022/09/22 00:11:12;;;;;;;16.60;10.32;;;;;;;4.19;100.00;102451.63;2097091;28;31473;-74
2022/09/22 00:12:14;;;;;;;12.43;9.30;;;;;;;4.18;100.00;102454.22;2096754;28;38989;-74
2022/09/22 00:13:15;;;;;;;14.23;10.10;;;;;;;4.18;100.00;102451.59;2096755;28;37060;-74
2022/09/22 00:14:22;;;;;;;13.85;10.00;;;;;;;4.15;100.00;102452.41;2096776;28;29475;-74
2022/09/22 00:15:23;;;;;;;13.98;10.13;;;;;;;4.16;100.00;102448.00;2096927;28;38767;-74
2022/09/22 00:16:36;;;;;;;19.00;11.90;;;;;;;4.16;100.00;102448.00;2097254;28;20037;-74
2022/09/22 00:17:40;;;;;;;14.07;10.75;;;;;;;4.17;100.00;102444.50;2097212;28;31455;-74
2022/09/22 00:18:42;;;;;;;15.48;10.68;;;;;;;4.19;100.00;102441.03;2096769;28;37430;-74
2022/09/22 00:19:43;;;;;;;14.68;10.73;;;;;;;4.20;100.00;102449.91;2097135;28;33695;-73
2022/09/22 00:20:45;;;;;;;13.38;10.13;;;;;;;4.18;100.00;102448.94;2097954;28;20037;-74
2022/09/22 00:21:47;;;;;;;15.88;9.77;;;;;;;4.17;100.00;102450.69;2096376;28;35516;-74
2022/09/22 00:22:50;;;;;;;13.35;9.15;;;;;;;4.13;100.00;102451.47;2096502;28;32290;-74
2022/09/22 00:23:54;;;;;;;14.13;9.15;;;;;;;4.05;100.00;102449.47;2096614;28;37064;-74
2022/09/22 00:24:57;;;;;;;12.85;9.73;;;;;;;4.01;100.00;102444.06;2096593;28;35171;-74
2022/09/22 00:26:10;;;;;;;14.68;10.40;;;;;;;3.98;100.00;102449.28;2096701;28;37256;-74
2022/09/22 00:27:11;;;;;;;12.38;8.93;;;;;;;3.97;100.00;102444.84;2096792;28;33065;-74
2022/09/22 00:28:13;;;;;;;15.48;9.98;;;;;;;3.96;100.00;102444.78;2096142;28;32046;-74
2022/09/22 00:29:16;;;;;;;13.00;9.50;;;;;;;3.95;100.00;102446.56;2096062;28;33385;-74
2022/09/22 00:30:20;;;;;;;13.60;10.07;;;;;;;3.97;100.00;102443.94;2097185;28;20041;-74
2022/09/22 00:31:24;;;;;;;15.27;10.63;;;;;;;3.97;100.00;102450.13;2096317;28;34540;-74
2022/09/22 00:32:26;;;;;;;17.05;10.80;;;;;;;3.97;100.00;102447.50;2095810;28;39118;-74
2022/09/22 00:33:28;;;;;;;16.20;10.93;;;;;;;3.96;100.00;102448.31;2096201;28;34419;-74
2022/09/22 00:34:29;;;;;;;15.90;10.32;;;;;;;3.96;100.00;102443.03;2096830;28;29946;-74
2022/09/22 00:35:31;;;;;;;14.35;10.35;;;;;;;3.95;100.00;102448.31;2096526;28;20049;-74
2022/09/22 00:36:34;;;;;;;10.65;8.63;;;;;;;3.95;100.00;102453.63;2087829;28;39440;-74
2022/09/22 00:37:35;;;;;;;13.27;9.50;;;;;;;3.93;100.00;102450.91;2087267;28;27823;-73
2022/09/22 00:38:39;;;;;;;14.95;9.40;;;;;;;3.91;100.00;102443.75;2088201;28;33793;-74
2022/09/22 00:39:40;;;;;;;12.55;8.73;;;;;;;3.88;100.00;102447.22;2087568;28;38235;-74
2022/09/22 00:40:42;;;;;;;12.40;8.95;;;;;;;3.86;100.00;102445.38;2096690;28;30420;-74
2022/09/22 00:41:48;;;;;;;14.30;9.63;;;;;;;3.83;100.00;102454.13;2096474;28;40514;-74
2022/09/22 00:42:49;;;;;;;16.02;9.32;;;;;;;3.73;100.00;102439.75;2096096;28;33251;-74
2022/09/22 00:44:17;;;;;;;13.80;9.38;;;;;;;3.69;100.00;102451.06;2096142;28;29526;-74
2022/09/22 00:45:23;;;;;;;15.70;9.43;;;;;;;3.69;100.00;102451.06;2096626;28;35923;-74
2022/09/22 00:46:27;;;;;;;13.15;8.65;;;;;;;3.68;100.00;102444.00;2096629;28;26998;-74
2022/09/22 00:47:36;;;;;;;14.48;9.63;;;;;;;3.71;100.00;102440.53;2095922;28;36307;-74
2022/09/22 00:48:47;;;;;;;13.05;9.57;;;;;;;3.73;100.00;102439.75;2097024;28;20048;-74
2022/09/22 00:49:51;;;;;;;15.40;9.60;;;;;;;3.75;100.00;102445.97;2096393;28;29718;-74
2022/09/22 00:50:59;;;;;;;16.65;10.35;;;;;;;3.75;100.00;102439.75;2096702;28;20091;-74
2022/09/22 00:52:01;;;;;;;13.95;10.02;;;;;;;3.77;100.00;102449.56;2095760;28;32624;-74
2022/09/22 00:53:13;;;;;;;13.75;10.52;;;;;;;3.76;100.00;102441.56;2096622;28;31994;-74
2022/09/22 00:54:17;;;;;;;15.40;9.50;;;;;;;3.76;100.00;102437.16;2096426;28;20830;-74
2022/09/22 00:55:33;;;;;;;12.95;9.48;;;;;;;3.79;100.00;102442.56;2095735;28;32345;-74
2022/09/22 00:56:49;;;;;;;13.73;9.55;;;;;;;3.80;100.00;102440.78;2096166;28;36315;-74
2022/09/22 00:57:52;;;;;;;13.65;10.20;;;;;;;3.75;100.00;102445.06;2096481;28;38999;-75
2022/09/22 00:59:07;;;;;;;13.70;10.23;;;;;;;3.72;100.00;102435.28;2095896;28;31724;-74
2022/09/22 01:00:10;;;;;;;14.70;9.27;;;;;;;3.70;100.00;102438.75;2096092;28;36753;-74
2022/09/22 01:01:14;;;;;;;14.70;10.13;;;;;;;3.68;100.00;102438.69;2097283;28;20041;-74
2022/09/22 01:02:16;;;;;;;14.90;9.82;;;;;;;3.63;100.00;102438.56;2096267;28;36292;-74
2022/09/22 01:03:21;;;;;;;13.25;9.38;;;;;;;3.63;100.00;102441.19;2096029;28;32195;-74
2022/09/22 01:04:28;;;;;;;14.02;8.88;;;;;;;3.61;100.00;102439.38;2096272;28;33285;-74
2022/09/22 01:05:33;;;;;;;16.50;9.88;;;;;;;3.57;100.00;102433.09;2095808;28;37342;-74
2022/09/22 01:06:38;;;;;;;13.73;9.38;;;;;;;3.59;100.00;102434.03;2095702;28;34034;-74
2022/09/22 01:07:41;;;;;;;16.02;9.75;;;;;;;3.64;100.00;102436.78;2096689;28;20791;-74
2022/09/22 01:08:44;;;;;;;16.73;9.95;;;;;;;3.72;100.00;102435.28;2095819;28;37403;-74
2022/09/22 01:09:45;;;;;;;14.82;10.25;;;;;;;3.80;100.00;102432.84;2096181;28;30312;-75
2022/09/22 01:10:49;;;;;;;14.02;10.38;;;;;;;3.85;100.00;102435.66;2095822;28;37592;-74
2022/09/22 01:11:51;;;;;;;16.20;10.68;;;;;;;3.86;100.00;102427.75;2095814;28;35454;-74
2022/09/22 01:13:16;;;;;;;14.85;10.60;;;;;;;3.85;100.00;102431.22;2096610;28;31888;-74
2022/09/22 01:14:48;;;;;;;13.15;9.68;;;;;;;3.82;100.00;102425.84;2096636;28;20041;-75
2022/09/22 01:16:16;;;;;;;12.57;8.68;;;;;;;3.74;100.00;102425.63;2096659;28;31080;-74
2022/09/22 01:17:41;;;;;;;16.08;9.27;;;;;;;3.67;100.00;102425.41;2096896;28;40773;-74
2022/09/22 01:18:54;;;;;;;14.70;8.95;;;;;;;3.66;100.00;102419.22;2095825;28;39863;-75
2022/09/22 01:20:22;;;;;;;11.07;8.18;;;;;;;3.61;100.00;102420.84;2095928;28;31883;-74
2022/09/22 01:22:03;;;;;;;11.73;8.45;;;;;;;3.59;100.00;102417.25;2095942;28;38864;-74
2022/09/22 01:23:46;;;;;;;14.50;9.68;;;;;;;3.55;100.00;102425.94;2085339;28;40138;-75
2022/09/22 01:24:58;;;;;;;13.85;8.60;;;;;;;3.51;100.00;102413.47;2095441;28;39259;-75
2022/09/22 01:26:45;;;;;;;13.00;9.57;;;;;;;3.47;100.00;102416.88;2095864;28;33297;-74
2022/09/22 01:28:09;;;;;;;13.20;8.18;;;;;;;3.44;100.00;102412.38;2097330;28;20041;-74
2022/09/22 01:29:47;;;;;;;12.30;7.72;;;;;;;3.42;100.00;102409.66;2095325;28;40495;-75
2022/09/22 01:31:02;;;;;;;;;;;;;;;3.41;100.00;102409.63;2097244;28;20044;-74
2022/09/22 01:32:52;;;;;;;15.25;8.30;;;;;;;3.40;100.00;102408.72;2096303;28;34558;-75
2022/09/22 01:34:32;;;;;;;12.68;8.02;;;;;;;3.40;100.00;102402.53;2096510;28;38484;-75
2022/09/22 01:36:00;;;;;;;11.70;6.78;;;;;;;3.38;100.00;102399.84;2096411;28;36634;-75
2022/09/22 01:37:18;;;;;;;10.20;7.18;;;;;;;3.39;100.00;102398.09;2096297;28;34942;-75
2022/09/22 01:38:55;;;;;;;11.75;7.68;;;;;;;3.36;100.00;102398.91;2095476;28;36653;-75
2022/09/22 01:40:11;;;;;;;13.02;8.70;;;;;;;3.29;100.00;102399.56;2063458;28;37734;-74
2022/09/22 01:41:23;;;;;;;13.27;8.75;;;;;;;3.30;100.00;102398.69;2072568;28;36725;-74
2022/09/22 01:42:36;;;;;;;11.15;8.30;;;;;;;3.31;100.00;102400.50;2095598;28;38910;-74
2022/09/22 01:43:49;;;;;;;12.05;8.68;;;;;;;3.33;100.00;102403.22;2095908;28;32505;-75
2022/09/22 01:45:03;;;;;;;10.68;7.80;;;;;;;3.32;100.00;102401.41;2095459;28;40891;-74
2022/09/22 01:46:20;;;;;;;8.88;7.60;;;;;;;3.29;100.00;102399.56;2096643;28;30185;-75
2022/09/22 01:47:31;;;;;;;12.20;8.32;;;;;;;3.32;100.00;102401.41;2095424;28;36296;-75
2022/09/22 01:48:40;;;;;;;11.25;8.00;;;;;;;3.30;100.00;102398.69;2091286;28;31044;-74
2022/09/22 01:49:51;;;;;;;9.93;7.70;;;;;;;3.28;100.00;102397.75;2089152;28;36053;-74
2022/09/22 01:51:04;;;;;;;14.55;8.23;;;;;;;3.28;100.00;102396.88;2089413;28;41614;-74
2022/09/22 01:52:15;;;;;;;10.18;7.93;;;;;;;3.25;100.00;102392.41;2081520;28;20022;-74
2022/09/22 01:53:23;;;;;;;12.13;8.25;;;;;;;3.25;100.00;102392.41;2083412;28;34532;-75
2022/09/22 01:54:38;;;;;;;14.15;8.05;;;;;;;3.23;100.00;102396.72;2097775;28;32950;-74
2022/09/22 01:55:46;;;;;;;13.05;7.90;;;;;;;3.23;100.00;102392.34;2095468;28;36697;-74
2022/09/22 01:57:00;;;;;;;10.15;7.03;;;;;;;3.22;100.00;102387.00;2095921;28;42277;-74
2022/09/22 01:58:11;;;;;;;11.55;7.85;;;;;;;3.22;100.00;102385.25;2087558;28;20052;-74
2022/09/22 01:59:16;;;;;;;11.10;7.63;;;;;;;3.21;100.00;102390.47;2083801;28;33624;-74
2022/09/22 02:00:19;;;;;;;12.77;8.40;;;;;;;3.22;100.00;102394.94;2088596;28;31305;-74
2022/09/22 02:01:54;;;;;;;12.93;8.05;;;;;;;3.20;100.00;102386.94;2088544;28;20022;-73
2022/09/22 02:03:13;;;;;;;11.75;7.57;;;;;;;3.22;100.00;102394.94;2096004;28;33416;-74
2022/09/22 02:04:31;;;;;;;12.40;8.00;;;;;;;3.22;100.00;102389.66;2095700;28;34981;-74
2022/09/22 02:05:46;;;;;;;12.75;8.30;;;;;;;3.23;100.00;102392.34;2096051;28;33608;-74
2022/09/22 02:07:10;;;;;;;11.85;7.15;;;;;;;3.24;100.00;102391.47;2095916;28;33853;-74
2022/09/22 02:08:23;;;;;;;12.32;8.18;;;;;;;3.24;100.00;102382.66;2092431;28;32356;-74
2022/09/22 02:09:29;;;;;;;12.23;8.40;;;;;;;3.24;100.00;102380.00;2082327;28;33866;-74
2022/09/22 02:10:36;;;;;;;12.15;8.70;;;;;;;3.24;100.00;102377.34;2089443;28;32277;-74
2022/09/22 02:11:39;;;;;;;12.35;8.65;;;;;;;3.25;100.00;102384.47;2096010;28;21086;-74
2022/09/22 02:12:40;;;;;;;9.52;7.47;;;;;;;3.23;100.00;102378.19;2079867;28;31020;-74
2022/09/22 02:13:43;;;;;;;12.90;8.18;;;;;;;3.22;100.00;102381.72;2087387;28;36088;-74
2022/09/22 02:14:46;;;;;;;14.30;8.80;;;;;;;3.23;100.00;102368.53;2095233;28;31988;-74
2022/09/22 02:15:59;;;;;;;13.02;8.13;;;;;;;3.25;100.00;102376.53;2087190;28;38260;-74
2022/09/22 02:17:01;;;;;;;10.63;7.90;;;;;;;3.29;100.00;102380.16;2088819;28;30956;-74
2022/09/22 02:18:16;;;;;;;11.35;7.88;;;;;;;3.27;100.00;102374.81;2095707;28;37646;-74
2022/09/22 02:19:36;;;;;;;11.43;7.28;;;;;;;3.24;100.00;102377.34;2095769;28;32154;-74
2022/09/22 02:20:38;;;;;;;8.43;5.70;;;;;;;3.20;100.00;102384.31;2095514;28;37121;-74
2022/09/22 02:21:43;;;;;;;12.45;7.82;;;;;;;3.18;100.00;102377.19;2097740;28;40314;-74
2022/09/22 02:22:45;;;;;;;12.48;8.88;;;;;;;3.18;100.00;102374.53;2103232;28;27515;-74
2022/09/22 02:23:48;;;;;;;9.65;6.75;;;;;;;3.20;100.00;102373.72;2095829;28;31142;-74
2022/09/22 02:24:50;;;;;;;12.23;7.28;;;;;;;3.17;100.00;102372.72;2095293;28;36610;-74
2022/09/22 02:25:53;;;;;;;10.95;6.95;;;;;;;3.15;100.00;102377.09;2095824;28;29390;-74
2022/09/22 02:27:12;;;;;;;9.60;7.38;;;;;;;3.11;100.00;102378.72;2095443;28;30872;-74
2022/09/22 02:28:19;;;;;;;14.15;8.25;;;;;;;3.08;100.00;102378.63;2095777;28;30669;-74
2022/09/22 02:29:22;;;;;;;11.38;7.47;;;;;;;3.08;100.00;102373.34;2095745;28;32816;-74
2022/09/22 02:30:26;;;;;;;10.32;7.25;;;;;;;3.09;100.00;102376.88;2088217;28;31262;-74
2022/09/22 02:31:35;;;;;;;9.20;6.72;;;;;;;3.08;100.00;102375.09;2088080;28;20260;-74
2022/09/22 02:32:42;;;;;;;10.25;7.00;;;;;;;3.07;100.00;102379.50;2088465;28;39859;-74
2022/09/22 02:33:48;;;;;;;12.20;7.90;;;;;;;3.01;100.00;102374.88;2088931;28;36625;-74
2022/09/22 02:34:53;;;;;;;10.10;7.80;;;;;;;3.00;100.00;102380.16;2095256;28;37973;-74
2022/09/22 02:36:08;;;;;;;9.65;7.07;;;;;;;3.01;100.00;102376.63;2095100;28;39295;-74
2022/09/22 02:37:34;;;;;;;12.60;7.95;;;;;;;2.97;100.00;102378.28;2096336;28;20115;-74
2022/09/22 02:38:53;;;;;;;13.30;7.55;;;;;;;2.94;100.00;102378.19;2095857;28;36294;-74
2022/09/22 02:40:10;;;;;;;11.05;6.88;;;;;;;2.97;100.00;102375.66;2095298;28;20049;-74
2022/09/22 02:41:35;;;;;;;8.27;6.50;;;;;;;2.94;100.00;102372.00;2095519;28;40158;-74
2022/09/22 02:42:46;;;;;;;10.57;6.05;;;;;;;2.95;100.00;102366.78;2097222;28;20059;-74
2022/09/22 02:43:56;;;;;;;;;;;;;;;2.93;100.00;102373.78;2096081;28;33736;-74
2022/09/22 02:45:15;;;;;;;10.05;6.40;;;;;;;2.90;100.00;102367.47;2095261;28;37929;-74
2022/09/22 02:46:54;;;;;;;10.55;6.30;;;;;;;2.89;100.00;102374.53;2095301;28;36704;-74
2022/09/22 02:48:14;;;;;;;10.15;7.15;;;;;;;2.88;100.00;102372.72;2095308;28;40848;-74
2022/09/22 02:49:17;;;;;;;11.48;7.90;;;;;;;2.89;100.00;102369.25;2095202;28;32509;-74
2022/09/22 02:50:23;;;;;;;9.95;7.25;;;;;;;2.91;100.00;102372.81;2095262;28;39178;-75
2022/09/22 02:51:26;;;;;;;13.07;7.97;;;;;;;2.90;100.00;102371.00;2104282;28;20186;-74
2022/09/22 02:52:30;;;;;;;15.80;8.98;;;;;;;2.91;100.00;102375.47;2102935;28;33743;-75
2022/09/22 02:53:36;;;;;;;12.32;8.48;;;;;;;2.92;100.00;102369.31;2088598;28;20038;-75
2022/09/22 02:54:38;;;;;;;14.55;8.90;;;;;;;2.93;100.00;102371.13;2095335;28;33081;-75
2022/09/22 02:55:41;;;;;;;11.82;9.23;;;;;;;2.94;100.00;102372.91;2095436;28;38235;-75
2022/09/22 02:56:43;;;;;;;21.98;8.80;;;;;;;2.94;100.00;102367.59;2095065;28;30516;-75
2022/09/22 02:57:47;;;;;;;13.55;9.32;;;;;;;2.94;100.00;102372.91;2086923;28;38412;-75
2022/09/22 02:58:49;;;;;;;10.68;8.25;;;;;;;2.95;100.00;102369.41;2095423;28;37231;-75
2022/09/22 02:59:53;;;;;;;12.95;8.65;;;;;;;2.97;100.00;102369.47;2096103;28;23620;-75
2022/09/22 03:00:55;;;;;;;9.18;7.28;;;;;;;2.93;100.00;102367.59;2096512;28;32776;-75
2022/09/22 03:01:57;;;;;;;12.52;7.22;;;;;;;2.91;100.00;102366.63;2097530;28;20134;-75
2022/09/22 03:02:59;;;;;;;9.93;7.32;;;;;;;2.87;100.00;102362.97;2097752;28;36197;-75
2022/09/22 03:04:02;;;;;;;11.68;6.93;;;;;;;2.85;100.00;102362.94;2097536;28;32204;-75
2022/09/22 03:05:05;;;;;;;9.88;6.80;;;;;;;2.83;100.00;102364.63;2097118;28;39146;-75
2022/09/22 03:06:09;;;;;;;9.25;6.75;;;;;;;2.83;100.00;102356.69;2097306;28;27528;-75
2022/09/22 03:07:11;;;;;;;9.90;7.28;;;;;;;2.84;100.00;102354.97;2097080;28;34288;-75
2022/09/22 03:08:13;;;;;;;8.40;6.35;;;;;;;2.82;100.00;102360.19;2097032;28;33278;-75
2022/09/22 03:09:16;;;;;;;10.45;6.80;;;;;;;2.80;100.00;102355.69;2097187;28;28380;-74
2022/09/22 03:10:18;;;;;;;12.90;6.43;;;;;;;2.81;100.00;102360.16;2097110;28;33679;-75
2022/09/22 03:11:20;;;;;;;7.97;6.00;;;;;;;2.75;100.00;102354.69;2097482;28;26814;-75
2022/09/22 03:12:21;;;;;;;9.05;6.57;;;;;;;2.74;100.00;102363.44;2097545;28;35242;-75
2022/09/22 03:13:23;;;;;;;11.27;6.60;;;;;;;2.76;100.00;102359.09;2097485;28;33308;-75
2022/09/22 03:14:25;;;;;;;9.43;6.60;;;;;;;2.75;100.00;102355.56;2105016;28;32754;-75
2022/09/22 03:15:29;;;;;;;10.32;6.97;;;;;;;2.73;100.00;102356.34;2104866;28;34944;-75
2022/09/22 03:16:31;;;;;;;8.48;6.88;;;;;;;2.66;100.00;102356.16;2097038;28;20052;-76
2022/09/22 03:17:34;;;;;;;9.70;7.28;;;;;;;2.65;100.00;102354.34;2096660;28;36104;-75
2022/09/22 03:18:35;;;;;;;9.02;6.65;;;;;;;2.64;100.00;102357.88;2096352;28;36472;-75
2022/09/22 03:19:37;;;;;;;9.07;6.95;;;;;;;2.63;100.00;102350.75;2088349;28;31538;-75
2022/09/22 03:20:39;;;;;;;11.65;7.70;;;;;;;2.64;100.00;102357.88;2096593;28;39243;-75
2022/09/22 03:21:41;;;;;;;10.38;7.40;;;;;;;2.65;100.00;102354.34;2097351;28;28190;-75
2022/09/22 03:22:43;;;;;;;8.27;6.88;;;;;;;2.64;100.00;102352.56;2096662;28;38517;-75
2022/09/22 03:23:44;;;;;;;12.55;7.38;;;;;;;2.62;100.00;102348.97;2096473;28;39432;-75
2022/09/22 03:24:46;;;;;;;7.88;6.15;;;;;;;2.61;100.00;102355.09;2097091;28;36083;-76
2022/09/22 03:25:48;;;;;;;8.63;6.95;;;;;;;2.57;100.00;102350.56;2097332;28;31495;-75
2022/09/22 03:26:49;;;;;;;8.35;6.88;;;;;;;2.56;100.00;102348.78;2097200;28;38430;-75
2022/09/22 03:27:51;;;;;;;10.35;7.30;;;;;;;2.56;100.00;102354.06;2097697;28;20148;-76
2022/09/22 03:28:53;;;;;;;9.63;6.47;;;;;;;2.58;100.00;102349.72;2097208;28;37590;-75
2022/09/22 03:29:55;;;;;;;8.07;6.57;;;;;;;2.57;100.00;102344.41;2096348;28;32387;-75
2022/09/22 03:30:59;;;;;;;11.40;7.32;;;;;;;2.59;100.00;102353.28;2096456;28;32564;-76
2022/09/22 03:32:01;;;;;;;7.80;6.50;;;;;;;2.58;100.00;102346.19;2096739;28;38702;-76
2022/09/22 03:33:02;;;;;;;8.07;6.03;;;;;;;2.58;100.00;102341.78;2096409;28;36816;-75
2022/09/22 03:34:04;;;;;;;7.55;6.15;;;;;;;2.60;100.00;102350.69;2096296;28;42564;-76
2022/09/22 03:35:07;;;;;;;8.57;7.07;;;;;;;2.58;100.00;102348.81;2096303;28;35451;-76
2022/09/22 03:36:08;;;;;;;10.63;7.15;;;;;;;2.55;100.00;102347.00;2097008;28;20049;-76
2022/09/22 03:37:10;;;;;;;10.50;6.68;;;;;;;2.56;100.00;102353.16;2096763;28;35489;-75
2022/09/22 03:38:12;;;;;;;10.75;7.07;;;;;;;2.56;100.00;102343.47;2097444;28;28667;-76
2022/09/22 03:39:14;;;;;;;10.68;6.75;;;;;;;2.55;100.00;102346.06;2097763;28;21604;-76
2022/09/22 03:40:15;;;;;;;9.95;6.70;;;;;;;2.54;100.00;102345.19;2096850;28;37107;-76
2022/09/22 03:41:18;;;;;;;8.10;6.53;;;;;;;2.56;100.00;102342.59;2097999;28;20048;-76
2022/09/22 03:42:20;;;;;;;9.85;6.53;;;;;;;2.53;100.00;102342.47;2096460;28;34998;-75
2022/09/22 03:43:22;;;;;;;8.90;6.43;;;;;;;2.51;100.00;102337.13;2096820;28;32413;-76
2022/09/22 03:44:25;;;;;;;9.68;6.60;;;;;;;2.50;100.00;102338.00;2097072;28;37385;-76
2022/09/22 03:45:27;;;;;;;11.50;7.40;;;;;;;2.49;100.00;102341.47;2096201;28;35990;-76
2022/09/22 03:46:29;;;;;;;10.13;7.25;;;;;;;2.46;100.00;102334.38;2096901;28;38277;-75
2022/09/22 03:47:31;;;;;;;11.30;6.22;;;;;;;2.49;100.00;102338.84;2105281;28;20079;-75
2022/09/22 03:48:33;;;;;;;8.50;6.57;;;;;;;2.48;100.00;102329.13;2096397;28;36033;-75
2022/09/22 03:49:35;;;;;;;8.68;6.68;;;;;;;2.51;100.00;102330.97;2096318;28;36491;-76
2022/09/22 03:50:36;;;;;;;9.25;6.28;;;;;;;2.51;100.00;102331.84;2096524;28;30500;-76
2022/09/22 03:51:40;;;;;;;9.10;7.20;;;;;;;2.52;100.00;102330.13;2096343;28;40708;-76
2022/09/22 03:52:43;;;;;;;11.20;7.13;;;;;;;2.52;100.00;102330.13;2096045;28;33115;-76
2022/09/22 03:53:45;;;;;;;8.65;6.80;;;;;;;2.52;100.00;102333.66;2096491;28;38621;-76
2022/09/22 03:54:47;;;;;;;9.50;6.90;;;;;;;2.52;100.00;102332.78;2095934;28;39676;-76
2022/09/22 03:55:49;;;;;;;11.90;7.50;;;;;;;2.55;100.00;102330.22;2096668;28;36225;-75
2022/09/22 03:56:50;;;;;;;11.70;7.78;;;;;;;2.55;100.00;102335.50;2096228;28;34682;-76
2022/09/22 03:57:52;;;;;;;10.10;6.85;;;;;;;2.53;100.00;102329.25;2096894;28;20037;-76
2022/09/22 03:58:57;;;;;;;9.95;6.63;;;;;;;2.52;100.00;102324.84;2097072;28;36563;-76
2022/09/22 03:59:58;;;;;;;10.63;6.65;;;;;;;2.51;100.00;102329.22;2096872;28;37482;-76
2022/09/22 04:01:00;;;;;;;10.32;6.93;;;;;;;2.48;100.00;102326.50;2096840;28;37850;-76
2022/09/22 04:02:03;;;;;;;10.90;7.53;;;;;;;2.45;100.00;102329.91;2096792;28;38125;-75
2022/09/22 04:03:05;;;;;;;10.35;7.05;;;;;;;2.47;100.00;102330.84;2096711;28;20041;-76
2022/09/22 04:04:07;;;;;;;12.23;7.53;;;;;;;2.51;100.00;102329.22;2096394;28;31233;-76
2022/09/22 04:05:10;;;;;;;10.38;7.70;;;;;;;2.52;100.00;102322.19;2097152;28;30964;-76
2022/09/22 04:06:11;;;;;;;8.90;7.10;;;;;;;2.53;100.00;102326.63;2096902;28;37548;-76
2022/09/22 04:07:13;;;;;;;10.05;7.10;;;;;;;2.53;100.00;102327.53;2096864;28;38616;-75
2022/09/22 04:08:16;;;;;;;10.40;7.25;;;;;;;2.51;100.00;102329.22;2097059;28;31438;-76
2022/09/22 04:09:18;;;;;;;12.32;8.52;;;;;;;2.50;100.00;102318.63;2097003;28;20037;-75
2022/09/22 04:10:20;;;;;;;12.20;7.88;;;;;;;2.54;100.00;102324.03;2095533;28;41403;-75
2022/09/22 04:11:23;;;;;;;11.38;7.97;;;;;;;2.57;100.00;102323.25;2095907;28;38200;-75
2022/09/22 04:12:24;;;;;;;10.50;7.80;;;;;;;2.57;100.00;102324.13;2096925;28;36999;-76
2022/09/22 04:13:26;;;;;;;16.48;9.57;;;;;;;2.56;100.00;102330.25;2096424;28;35172;-76
2022/09/22 04:14:28;;;;;;;12.95;9.02;;;;;;;2.54;100.00;102329.31;2095692;28;37862;-76
2022/09/22 04:15:30;;;;;;;16.58;9.45;;;;;;;2.55;100.00;102323.19;2096297;28;34752;-76
2022/09/22 04:16:32;;;;;;;14.82;10.20;;;;;;;2.55;100.00;102320.56;2096753;28;32113;-76
2022/09/22 04:17:35;;;;;;;15.68;10.13;;;;;;;2.55;100.00;102319.63;2096154;28;27054;-76
2022/09/22 04:18:40;;;;;;;14.90;10.25;;;;;;;2.55;100.00;102320.56;2097041;28;33432;-75
2022/09/22 04:19:43;;;;;;;12.63;9.10;;;;;;;2.57;100.00;102323.25;2097000;28;20048;-76
2022/09/22 04:20:45;;;;;;;12.93;9.38;;;;;;;2.55;100.00;102320.56;2096953;28;37718;-76
2022/09/22 04:21:47;;;;;;;13.60;9.88;;;;;;;2.54;100.00;102313.47;2096595;28;32382;-76
2022/09/22 04:22:51;;;;;;;10.88;8.27;;;;;;;2.52;100.00;102323.09;2096616;28;37449;-76
2022/09/22 04:23:53;;;;;;;12.90;9.60;;;;;;;2.50;100.00;102324.78;2095841;28;33164;-76
2022/09/22 04:24:56;;;;;;;12.52;8.73;;;;;;;2.49;100.00;102325.63;2096011;28;37182;-76
2022/09/22 04:25:57;;;;;;;13.32;9.23;;;;;;;2.47;100.00;102322.91;2096574;28;31599;-76
2022/09/22 04:26:59;;;;;;;12.27;8.15;;;;;;;2.44;100.00;102319.28;2096531;28;32769;-76
2022/09/22 04:28:20;;;;;;;15.77;10.00;;;;;;;2.43;100.00;102321.03;2096709;28;27311;-76
2022/09/22 04:29:22;;;;;;;19.05;10.25;;;;;;;2.50;100.00;102322.16;2097468;28;20912;-75
2022/09/22 04:30:27;;;;;;;15.32;10.90;;;;;;;2.54;100.00;102323.16;2096761;28;39002;-76
2022/09/22 04:31:29;;;;;;;15.23;10.05;;;;;;;2.54;100.00;102324.03;2097305;28;31386;-76
2022/09/22 04:32:31;;;;;;;12.02;9.38;;;;;;;2.53;100.00;102323.97;2097034;28;23343;-75
2022/09/22 04:33:33;;;;;;;14.27;8.80;;;;;;;2.50;100.00;102322.16;2096783;28;33784;-76
2022/09/22 04:34:34;;;;;;;15.27;10.48;;;;;;;2.45;100.00;102321.97;2087773;28;29582;-76
2022/09/22 04:35:38;;;;;;;13.93;10.77;;;;;;;2.43;100.00;102326.31;2087934;28;33917;-75
2022/09/22 04:36:40;;;;;;;14.55;10.20;;;;;;;2.43;100.00;102325.44;2087911;28;20038;-75
2022/09/22 04:37:42;;;;;;;10.93;8.35;;;;;;;2.41;100.00;102327.13;2087718;28;31597;-76
2022/09/22 04:38:44;;;;;;;14.25;9.15;;;;;;;2.38;100.00;102321.75;2087733;28;37618;-76
2022/09/22 04:39:45;;;;;;;13.70;10.05;;;;;;;2.35;100.00;102322.56;2088248;28;20033;-76
2022/09/22 04:40:48;;;;;;;11.85;9.13;;;;;;;2.34;100.00;102325.13;2096481;28;35379;-76
2022/09/22 04:41:50;;;;;;;11.10;8.07;;;;;;;2.33;100.00;102318.94;2096922;28;33636;-75
2022/09/22 04:42:51;;;;;;;11.45;8.50;;;;;;;2.31;100.00;102317.97;2095733;28;33588;-75
2022/09/22 04:43:53;;;;;;;12.55;9.18;;;;;;;2.27;100.00;102318.75;2096355;28;39246;-75
2022/09/22 04:45:00;;;;;;;10.88;8.20;;;;;;;2.27;100.00;102317.00;2104093;28;32535;-75
2022/09/22 04:46:02;;;;;;;11.80;8.98;;;;;;;2.23;100.00;102317.75;2096351;28;40502;-75
2022/09/22 04:47:04;;;;;;;13.95;10.48;;;;;;;2.23;100.00;102311.56;2096737;28;33053;-75
2022/09/22 04:48:06;;;;;;;12.88;10.10;;;;;;;2.25;100.00;102309.88;2096912;28;31188;-75
2022/09/22 04:49:07;;;;;;;12.88;9.60;;;;;;;2.24;100.00;102319.56;2096285;28;33808;-75
2022/09/22 04:50:09;;;;;;;15.98;11.45;;;;;;;2.25;100.00;102313.41;2097480;28;20025;-75
2022/09/22 04:51:11;;;;;;;15.00;10.48;;;;;;;2.26;100.00;102317.84;2096412;28;36828;-75
2022/09/22 04:52:12;;;;;;;18.40;10.90;;;;;;;2.25;100.00;102310.75;2096664;28;31434;-75
2022/09/22 04:53:14;;;;;;;15.60;10.90;;;;;;;2.28;100.00;102313.50;2096830;28;35242;-75
2022/09/22 04:54:16;;;;;;;12.82;8.82;;;;;;;2.28;100.00;102310.88;2096911;28;37981;-75
2022/09/22 04:55:19;;;;;;;12.45;9.05;;;;;;;2.26;100.00;102312.56;2096266;28;33610;-75
2022/09/22 04:56:21;;;;;;;16.25;10.75;;;;;;;2.24;100.00;102314.25;2096560;28;32384;-75
2022/09/22 04:57:23;;;;;;;10.60;9.50;;;;;;;2.24;100.00;102313.34;2095883;28;32764;-75
2022/09/22 04:58:25;;;;;;;14.18;11.15;;;;;;;2.21;100.00;102319.44;2096829;28;21886;-75
2022/09/22 04:59:28;;;;;;;13.90;10.32;;;;;;;2.20;100.00;102309.69;2095747;28;42696;-75
2022/09/22 05:00:32;;;;;;;13.38;10.73;;;;;;;2.17;100.00;102316.63;2097001;28;34306;-76
2022/09/22 05:01:34;;;;;;;13.52;10.63;;;;;;;2.18;100.00;102314.03;2096851;28;20830;-75
2022/09/22 05:02:36;;;;;;;14.10;10.27;;;;;;;2.19;100.00;102318.50;2096751;28;39715;-74
2022/09/22 05:03:38;;;;;;;14.98;10.20;;;;;;;2.20;100.00;102317.63;2096113;28;40800;-75
2022/09/22 05:04:39;;;;;;;13.60;9.88;;;;;;;2.20;100.00;102309.69;2096656;28;38265;-76
2022/09/22 05:05:45;;;;;;;16.88;11.02;;;;;;;2.21;100.00;102310.63;2095409;28;39775;-76
2022/09/22 05:06:47;;;;;;;11.48;8.88;;;;;;;2.22;100.00;102307.13;2096486;28;33343;-75
2022/09/22 05:07:53;;;;;;;18.38;11.85;;;;;;;2.20;100.00;102309.69;2096768;28;33076;-75